createdAt,value
2023-12-18T00:01:03.292Z,7.80
2023-12-18T00:03:42.785Z,8.80
2023-12-18T00:06:09.607Z,8.60
2023-12-18T00:08:36.348Z,11.30
2023-12-18T00:11:03.265Z,11.30
2023-12-18T00:13:30.114Z,10.30
2023-12-18T00:15:56.841Z,9.80
2023-12-18T00:18:23.689Z,13.10
2023-12-18T00:20:53.508Z,11.10
2023-12-18T00:23:20.516Z,8.60
2023-12-18T00:25:47.233Z,10.50
2023-12-18T00:28:13.977Z,11.20
2023-12-18T00:30:40.799Z,9.80
2023-12-18T00:33:07.718Z,7.40
2023-12-18T00:35:34.549Z,9.70
2023-12-18T00:38:01.374Z,12.20
2023-12-18T00:40:28.186Z,12.40
2023-12-18T00:42:54.997Z,12.50
2023-12-18T00:45:21.792Z,11.80
2023-12-18T00:47:48.631Z,10.00
2023-12-18T00:50:15.619Z,10.40
2023-12-18T00:52:42.449Z,9.20
2023-12-18T00:55:09.517Z,10.80
2023-12-18T00:57:36.303Z,13.20
2023-12-18T01:00:04.951Z,10.80
2023-12-18T01:02:31.965Z,9.40
2023-12-18T01:04:58.744Z,10.50
2023-12-18T01:07:25.542Z,10.90
2023-12-18T01:09:56.858Z,12.80
2023-12-18T01:12:23.640Z,11.90
2023-12-18T01:14:51.082Z,11.50
2023-12-18T01:17:22.497Z,11.40
2023-12-18T01:19:53.723Z,11.70
2023-12-18T01:22:20.816Z,11.40
2023-12-18T01:24:47.597Z,11.00
2023-12-18T01:27:14.385Z,10.40
2023-12-18T01:29:41.525Z,11.50
2023-12-18T01:32:11.473Z,11.00
2023-12-18T01:34:38.956Z,10.30
2023-12-18T01:37:06.277Z,11.30
2023-12-18T01:39:33.057Z,11.50
2023-12-18T01:42:00.130Z,11.00
2023-12-18T01:44:27.303Z,17.20
2023-12-18T01:46:56.137Z,12.50
2023-12-18T01:49:24.127Z,10.90
2023-12-18T01:51:51.056Z,12.10
2023-12-18T01:54:22.965Z,12.90
2023-12-18T01:56:55.584Z,12.10
2023-12-18T01:59:24.328Z,13.00
2023-12-18T02:01:52.178Z,12.10
2023-12-18T02:04:20.281Z,12.40
2023-12-18T02:06:48.255Z,14.90
2023-12-18T02:09:16.189Z,13.00
2023-12-18T02:11:46.184Z,12.80
2023-12-18T02:14:13.720Z,15.60
2023-12-18T02:16:41.424Z,13.60
2023-12-18T02:19:24.537Z,10.50
2023-12-18T02:21:51.671Z,12.30
2023-12-18T02:24:19.349Z,13.50
2023-12-18T02:26:47.587Z,12.90
2023-12-18T02:29:14.935Z,14.20
2023-12-18T02:31:42.917Z,12.60
2023-12-18T02:34:09.994Z,15.90
2023-12-18T02:36:36.931Z,13.10
2023-12-18T02:39:03.768Z,15.40
2023-12-18T02:41:30.570Z,16.50
2023-12-18T02:43:57.801Z,15.10
2023-12-18T02:46:24.532Z,17.60
2023-12-18T02:48:51.407Z,16.70
2023-12-18T02:51:18.196Z,17.10
2023-12-18T02:53:44.952Z,14.80
2023-12-18T02:56:13.697Z,17.00
2023-12-18T02:58:41.283Z,15.90
2023-12-18T03:01:08.514Z,25.20
2023-12-18T03:03:35.447Z,27.20
2023-12-18T03:06:02.575Z,30.70
2023-12-18T03:08:29.527Z,26.70
2023-12-18T03:10:56.360Z,22.90
2023-12-18T03:13:23.190Z,20.10
2023-12-18T03:15:50.098Z,17.00
2023-12-18T03:18:17.056Z,17.20
2023-12-18T03:20:43.853Z,20.30
2023-12-18T03:23:10.591Z,20.70
2023-12-18T03:25:37.419Z,21.10
2023-12-18T03:28:04.357Z,19.60
2023-12-18T03:30:31.194Z,15.70
2023-12-18T03:33:00.144Z,15.60
2023-12-18T03:35:26.926Z,15.80
2023-12-18T03:37:53.702Z,17.30
2023-12-18T03:40:20.432Z,15.50
2023-12-18T03:42:47.186Z,15.80
2023-12-18T03:45:14.147Z,14.90
2023-12-18T03:47:41.385Z,15.80
2023-12-18T03:50:08.613Z,16.00
2023-12-18T03:52:35.623Z,16.80
2023-12-18T03:55:02.686Z,18.70
2023-12-18T03:57:29.465Z,14.50
2023-12-18T03:59:58.193Z,18.80
2023-12-18T04:02:25.495Z,17.70
2023-12-18T04:04:53.256Z,17.60
2023-12-18T04:07:20.380Z,18.70
2023-12-18T04:09:47.296Z,17.20
2023-12-18T04:12:14.316Z,24.90
2023-12-18T04:14:43.566Z,24.80
2023-12-18T04:17:10.288Z,24.10
2023-12-18T04:19:37.088Z,18.40
2023-12-18T04:22:04.136Z,17.80
2023-12-18T04:24:30.909Z,20.40
2023-12-18T04:26:57.693Z,17.20
2023-12-18T04:29:24.380Z,15.70
2023-12-18T04:31:52.007Z,15.40
2023-12-18T04:34:18.739Z,15.50
2023-12-18T04:36:45.699Z,15.20
2023-12-18T04:39:12.742Z,16.60
2023-12-18T04:41:39.573Z,14.80
2023-12-18T04:44:06.470Z,19.50
2023-12-18T04:46:37.138Z,41.60
2023-12-18T04:49:05.760Z,36.10
2023-12-18T04:51:33.096Z,20.70
2023-12-18T04:54:00.561Z,16.60
2023-12-18T04:56:27.504Z,15.30
2023-12-18T04:58:54.328Z,14.70
2023-12-18T05:01:21.313Z,15.90
2023-12-18T05:03:48.191Z,14.40
2023-12-18T05:06:24.487Z,36.70
2023-12-18T05:08:51.759Z,39.10
2023-12-18T05:11:20.700Z,29.40
2023-12-18T05:13:47.689Z,28.10
2023-12-18T05:16:15.856Z,23.50
2023-12-18T05:18:43.348Z,16.40
2023-12-18T05:21:11.442Z,15.70
2023-12-18T05:23:39.468Z,16.60
2023-12-18T05:26:06.542Z,15.80
2023-12-18T05:28:34.512Z,15.40
2023-12-18T05:31:01.346Z,20.40
2023-12-18T05:33:28.180Z,25.60
2023-12-18T05:35:54.945Z,22.00
2023-12-18T05:38:21.691Z,23.70
2023-12-18T05:40:48.525Z,19.30
2023-12-18T05:43:15.270Z,18.30
2023-12-18T05:45:42.073Z,23.10
2023-12-18T05:48:08.998Z,17.60
2023-12-18T05:50:35.925Z,17.50
2023-12-18T05:53:02.742Z,20.00
2023-12-18T05:55:29.477Z,18.70
2023-12-18T05:57:56.277Z,22.00
2023-12-18T06:00:23.152Z,19.20
2023-12-18T06:02:49.918Z,21.50
2023-12-18T06:05:16.805Z,19.30
2023-12-18T06:07:43.561Z,15.30
2023-12-18T06:10:10.415Z,16.60
2023-12-18T06:12:37.839Z,15.80
2023-12-18T06:15:06.220Z,16.70
2023-12-18T06:17:33.079Z,16.50
2023-12-18T06:19:59.947Z,18.90
2023-12-18T06:22:26.834Z,17.60
2023-12-18T06:24:53.698Z,20.90
2023-12-18T06:27:20.644Z,23.20
2023-12-18T06:29:47.636Z,22.30
2023-12-18T06:32:15.002Z,20.70
2023-12-18T06:34:43.526Z,32.70
2023-12-18T06:37:10.555Z,29.50
2023-12-18T06:39:37.343Z,37.60
2023-12-18T06:42:04.500Z,33.70
2023-12-18T06:44:31.288Z,34.00
2023-12-18T06:46:58.130Z,33.30
2023-12-18T06:49:25.045Z,33.70
2023-12-18T06:51:52.113Z,35.60
2023-12-18T06:54:18.974Z,36.60
2023-12-18T06:56:46.413Z,36.60
2023-12-18T06:59:13.262Z,39.80
2023-12-18T07:01:40.155Z,44.50
2023-12-18T07:04:07.046Z,44.30
2023-12-18T07:06:34.414Z,25.60
2023-12-18T07:09:01.279Z,27.00
2023-12-18T07:11:28.174Z,21.50
2023-12-18T07:13:54.924Z,21.20
2023-12-18T07:16:22.981Z,18.80
2023-12-18T07:18:50.015Z,20.60
2023-12-18T07:21:17.113Z,20.20
2023-12-18T07:23:43.955Z,23.70
2023-12-18T07:26:14.004Z,24.90
2023-12-18T07:28:41.792Z,27.40
2023-12-18T07:31:09.257Z,37.10
2023-12-18T07:33:36.150Z,38.30
2023-12-18T07:36:03.685Z,31.50
2023-12-18T07:38:30.885Z,43.60
2023-12-18T07:40:57.755Z,44.80
2023-12-18T07:43:24.536Z,63.20
2023-12-18T07:45:51.362Z,54.30
2023-12-18T07:48:22.065Z,73.50
2023-12-18T07:50:48.994Z,64.50
2023-12-18T07:53:15.919Z,74.70
2023-12-18T07:55:42.916Z,42.00
2023-12-18T07:58:09.692Z,56.80
2023-12-18T08:00:36.668Z,60.20
2023-12-18T08:03:03.993Z,43.00
2023-12-18T08:05:31.496Z,49.60
2023-12-18T08:07:58.383Z,42.30
2023-12-18T08:10:25.315Z,37.20
2023-12-18T08:12:52.324Z,41.00
2023-12-18T08:15:19.332Z,28.90
2023-12-18T08:17:46.205Z,35.60
2023-12-18T08:20:14.195Z,24.50
2023-12-18T08:22:41.126Z,17.20
2023-12-18T08:25:08.376Z,21.10
2023-12-18T08:27:35.566Z,29.30
2023-12-18T08:30:09.574Z,18.70
2023-12-18T08:35:03.283Z,19.00
2023-12-18T08:37:30.090Z,16.80
2023-12-18T08:39:56.942Z,21.00
2023-12-18T08:42:23.881Z,22.20
2023-12-18T08:44:50.924Z,21.10
2023-12-18T08:47:17.993Z,16.70
2023-12-18T08:49:44.797Z,18.60
2023-12-18T08:52:11.673Z,16.70
2023-12-18T08:54:38.476Z,19.20
2023-12-18T08:57:05.257Z,13.50
2023-12-18T08:59:32.035Z,16.70
2023-12-18T09:01:58.831Z,16.50
2023-12-18T09:04:26.100Z,14.40
2023-12-18T09:06:53.175Z,16.50
2023-12-18T09:09:21.393Z,15.00
2023-12-18T09:11:48.307Z,14.60
2023-12-18T09:14:15.074Z,14.60
2023-12-18T09:16:41.895Z,16.10
2023-12-18T09:19:09.087Z,17.00
2023-12-18T09:21:36.058Z,18.30
2023-12-18T09:24:02.953Z,13.80
2023-12-18T09:26:29.773Z,12.30
2023-12-18T09:28:56.862Z,17.80
2023-12-18T09:31:24.146Z,21.20
2023-12-18T09:33:51.076Z,20.00
2023-12-18T09:36:18.617Z,16.90
2023-12-18T09:38:45.485Z,13.80
2023-12-18T09:41:21.286Z,17.20
2023-12-18T09:43:50.793Z,20.70
2023-12-18T09:46:21.492Z,22.10
2023-12-18T09:48:49.478Z,20.00
2023-12-18T09:51:24.503Z,16.40
2023-12-18T09:53:53.189Z,10.00
2023-12-18T09:56:24.233Z,6.80
2023-12-18T09:58:55.541Z,12.20
2023-12-18T10:01:23.702Z,12.40
2023-12-18T10:03:50.776Z,13.70
2023-12-18T10:06:18.803Z,6.80
2023-12-18T10:08:50.581Z,4.20
2023-12-18T10:11:26.179Z,3.20
2023-12-18T10:13:54.369Z,6.00
2023-12-18T10:16:22.354Z,12.20
2023-12-18T10:18:50.179Z,10.20
2023-12-18T10:21:23.448Z,12.50
2023-12-18T10:23:54.089Z,16.30
2023-12-18T10:26:22.526Z,26.50
2023-12-18T10:28:53.457Z,34.70
2023-12-18T10:31:20.991Z,27.00
2023-12-18T10:33:48.094Z,15.20
2023-12-18T10:36:19.411Z,17.80
2023-12-18T10:38:50.722Z,16.90
2023-12-18T10:41:23.416Z,13.40
2023-12-18T10:43:51.013Z,35.00
2023-12-18T10:46:19.135Z,18.40
2023-12-18T10:48:51.636Z,14.60
2023-12-18T10:51:21.055Z,10.40
2023-12-18T10:53:49.187Z,11.30
2023-12-18T10:56:17.810Z,33.60
2023-12-18T10:58:45.419Z,17.70
2023-12-18T11:01:15.782Z,7.90
2023-12-18T11:03:43.938Z,18.00
2023-12-18T11:06:11.788Z,6.90
2023-12-18T11:08:38.631Z,7.20
2023-12-18T11:11:06.509Z,6.20
2023-12-18T11:13:48.604Z,5.20
2023-12-18T11:16:15.297Z,8.50
2023-12-18T11:19:16.057Z,7.70
2023-12-18T11:21:49.774Z,12.40
2023-12-18T11:24:17.977Z,5.10
2023-12-18T11:26:46.822Z,4.80
2023-12-18T11:29:33.394Z,11.30
2023-12-18T11:32:00.256Z,10.60
2023-12-18T11:34:27.129Z,5.70
2023-12-18T11:36:54.080Z,5.50
2023-12-18T11:39:28.208Z,3.30
2023-12-18T11:41:55.008Z,7.20
2023-12-18T11:44:28.304Z,11.20
2023-12-18T11:46:55.441Z,12.10
2023-12-18T11:49:23.588Z,8.90
2023-12-18T11:51:50.838Z,7.20
2023-12-18T11:54:23.802Z,7.70
2023-12-18T11:56:52.106Z,5.50
2023-12-18T11:59:20.355Z,9.90
2023-12-18T12:01:47.857Z,8.30
2023-12-18T12:04:16.758Z,8.80
2023-12-18T12:06:46.715Z,9.20
2023-12-18T12:09:13.547Z,8.40
2023-12-18T12:11:40.421Z,9.50
2023-12-18T12:14:07.236Z,10.10
2023-12-18T12:16:34.019Z,10.20
2023-12-18T12:19:03.818Z,11.80
2023-12-18T12:21:38.898Z,12.80
2023-12-18T12:24:12.263Z,11.20
2023-12-18T12:26:39.159Z,9.20
2023-12-18T12:29:06.729Z,6.50
2023-12-18T12:31:35.267Z,16.10
2023-12-18T12:34:02.989Z,14.30
2023-12-18T12:36:30.994Z,15.50
2023-12-18T12:38:58.629Z,12.20
2023-12-18T12:41:25.588Z,12.10
2023-12-18T12:43:52.746Z,8.30
2023-12-18T12:46:26.551Z,11.30
2023-12-18T12:48:56.756Z,13.30
2023-12-18T12:51:24.291Z,14.00
2023-12-18T12:53:51.192Z,13.00
2023-12-18T12:56:18.046Z,18.10
2023-12-18T12:58:44.828Z,26.40
2023-12-18T13:01:11.695Z,18.60
2023-12-18T13:03:38.675Z,13.80
2023-12-18T13:06:05.880Z,17.20
2023-12-18T13:08:33.817Z,17.00
2023-12-18T13:11:02.032Z,11.50
2023-12-18T13:13:29.250Z,13.30
2023-12-18T13:15:56.083Z,14.00
2023-12-18T13:18:23.022Z,13.10
2023-12-18T13:20:49.970Z,16.50
2023-12-18T13:23:16.808Z,19.20
2023-12-18T13:25:43.608Z,18.10
2023-12-18T13:28:10.490Z,29.70
2023-12-18T13:30:37.674Z,38.70
2023-12-18T13:33:04.837Z,53.30
2023-12-18T13:35:31.766Z,60.30
2023-12-18T13:37:59.733Z,66.60
2023-12-18T13:40:28.985Z,44.90
2023-12-18T13:42:55.971Z,29.10
2023-12-18T13:45:22.931Z,37.90
2023-12-18T13:47:51.704Z,39.20
2023-12-18T13:50:18.521Z,32.80
2023-12-18T13:52:45.793Z,22.90
2023-12-18T13:55:13.108Z,24.20
2023-12-18T13:57:46.460Z,25.40
2023-12-18T14:00:17.144Z,26.00
2023-12-18T14:02:44.433Z,18.50
2023-12-18T14:05:11.308Z,18.80
2023-12-18T14:07:39.278Z,17.90
2023-12-18T14:10:08.061Z,24.40
2023-12-18T14:12:36.010Z,24.30
2023-12-18T14:15:04.010Z,27.90
2023-12-18T14:17:30.958Z,25.30
2023-12-18T14:20:04.277Z,19.70
2023-12-18T14:22:31.210Z,27.90
2023-12-18T14:24:58.071Z,25.90
2023-12-18T14:27:24.941Z,22.20
2023-12-18T14:29:51.737Z,26.70
2023-12-18T14:32:18.653Z,64.50
2023-12-18T14:34:45.562Z,34.50
2023-12-18T14:37:12.763Z,42.70
2023-12-18T14:39:39.534Z,30.90
2023-12-18T14:42:08.148Z,29.00
2023-12-18T14:44:35.505Z,36.80
2023-12-18T14:47:02.319Z,34.50
2023-12-18T14:49:29.538Z,36.40
2023-12-18T14:51:57.157Z,39.40
2023-12-18T14:54:24.055Z,56.10
2023-12-18T14:56:53.395Z,56.60
2023-12-18T14:59:21.174Z,60.90
2023-12-18T15:01:48.216Z,65.90
2023-12-18T15:04:19.597Z,71.40
2023-12-18T15:06:53.453Z,74.30
2023-12-18T15:09:20.658Z,63.20
2023-12-18T15:11:47.907Z,69.20
2023-12-18T15:14:14.748Z,70.40
2023-12-18T15:16:42.346Z,58.50
2023-12-18T15:19:09.425Z,52.90
2023-12-18T15:21:38.561Z,57.20
2023-12-18T15:24:09.686Z,51.70
2023-12-18T15:26:38.326Z,74.70
2023-12-18T15:29:05.170Z,74.80
2023-12-18T15:31:32.256Z,91.50
2023-12-18T15:34:02.197Z,44.40
2023-12-18T15:36:30.627Z,41.90
2023-12-18T15:38:57.418Z,50.90
2023-12-18T15:41:24.227Z,77.30
2023-12-18T15:43:51.116Z,89.70
2023-12-18T15:46:17.873Z,82.50
2023-12-18T15:48:45.035Z,77.60
2023-12-18T15:51:11.994Z,111.30
2023-12-18T15:53:39.843Z,165.90
2023-12-18T15:56:07.012Z,104.80
2023-12-18T15:58:33.914Z,89.60
2023-12-18T16:01:00.733Z,78.00
2023-12-18T16:03:27.648Z,72.20
2023-12-18T16:05:56.069Z,70.90
2023-12-18T16:08:23.035Z,83.40
2023-12-18T16:10:50.286Z,81.00
2023-12-18T16:13:17.026Z,100.80
2023-12-18T16:15:43.932Z,90.10
2023-12-18T16:18:10.872Z,91.60
2023-12-18T16:20:37.810Z,75.50
2023-12-18T16:23:04.930Z,84.80
2023-12-18T16:25:31.797Z,86.60
2023-12-18T16:27:58.675Z,75.10
2023-12-18T16:30:25.569Z,87.20
2023-12-18T16:32:52.472Z,127.30
2023-12-18T16:35:19.529Z,156.60
2023-12-18T16:37:46.372Z,159.40
2023-12-18T16:40:13.416Z,123.40
2023-12-18T16:42:40.480Z,95.60
2023-12-18T16:45:08.451Z,69.80
2023-12-18T16:47:35.256Z,58.00
2023-12-18T16:50:02.427Z,48.00
2023-12-18T16:52:32.610Z,48.80
2023-12-18T16:55:00.326Z,49.30
2023-12-18T16:57:27.548Z,48.00
2023-12-18T16:59:59.576Z,45.30
2023-12-18T17:02:29.195Z,43.30
2023-12-18T17:04:55.985Z,37.50
2023-12-18T17:07:23.952Z,36.80
2023-12-18T17:09:50.778Z,35.70
2023-12-18T17:12:17.643Z,46.00
2023-12-18T17:14:48.548Z,71.00
2023-12-18T17:17:15.330Z,51.50
2023-12-18T17:19:42.134Z,36.20
2023-12-18T17:22:08.920Z,42.20
2023-12-18T17:24:35.739Z,34.20
2023-12-18T17:27:02.736Z,38.10
2023-12-18T17:29:29.553Z,36.80
2023-12-18T17:31:56.433Z,41.20
2023-12-18T17:34:23.254Z,41.60
2023-12-18T17:36:50.208Z,39.50
2023-12-18T17:39:17.066Z,36.40
2023-12-18T17:41:43.868Z,34.60
2023-12-18T17:44:10.707Z,51.30
2023-12-18T17:46:39.280Z,52.00
2023-12-18T17:49:06.935Z,55.80
2023-12-18T17:51:33.780Z,60.70
2023-12-18T17:54:02.099Z,75.40
2023-12-18T17:56:29.027Z,85.90
2023-12-18T17:58:55.806Z,71.50
2023-12-18T18:01:22.751Z,76.60
2023-12-18T18:03:49.635Z,75.50
2023-12-18T18:06:19.889Z,85.10
2023-12-18T18:08:47.326Z,134.80
2023-12-18T18:11:14.784Z,152.80
2023-12-18T18:13:41.523Z,148.70
2023-12-18T18:16:08.439Z,144.80
2023-12-18T18:18:35.339Z,98.60
2023-12-18T18:21:02.183Z,95.90
2023-12-18T18:23:28.970Z,91.10
2023-12-18T18:25:55.920Z,79.40
2023-12-18T18:28:22.752Z,74.30
2023-12-18T18:30:50.725Z,70.90
2023-12-18T18:33:17.880Z,74.80
2023-12-18T18:35:45.414Z,63.50
2023-12-18T18:38:12.499Z,68.90
2023-12-18T18:40:41.668Z,74.00
2023-12-18T18:43:08.419Z,67.90
2023-12-18T18:45:36.213Z,74.00
2023-12-18T18:48:04.303Z,91.20
2023-12-18T18:50:31.108Z,129.80
2023-12-18T18:52:57.875Z,96.70
2023-12-18T18:55:24.757Z,82.70
2023-12-18T18:57:52.011Z,88.80
2023-12-18T19:00:20.463Z,113.40
2023-12-18T19:02:47.282Z,97.50
2023-12-18T19:05:16.339Z,101.80
2023-12-18T19:07:43.462Z,84.90
2023-12-18T19:10:10.672Z,83.10
2023-12-18T19:12:41.958Z,87.70
2023-12-18T19:15:08.780Z,90.60
2023-12-18T19:17:36.524Z,71.00
2023-12-18T19:20:03.951Z,65.20
2023-12-18T19:22:30.846Z,63.70
2023-12-18T19:24:57.716Z,58.10
2023-12-18T19:27:24.564Z,46.40
2023-12-18T19:29:51.457Z,43.10
2023-12-18T19:32:18.685Z,39.20
2023-12-18T19:34:46.378Z,39.30
2023-12-18T19:37:15.397Z,33.10
2023-12-18T19:39:42.170Z,35.00
2023-12-18T19:42:08.952Z,37.90
2023-12-18T19:44:36.139Z,27.20
2023-12-18T19:47:03.215Z,23.70
2023-12-18T19:49:30.062Z,34.50
2023-12-18T19:51:57.086Z,33.20
2023-12-18T19:54:24.449Z,26.40
2023-12-18T19:56:51.629Z,24.80
2023-12-18T19:59:18.418Z,29.60
2023-12-18T20:01:47.086Z,26.10
2023-12-18T20:04:16.377Z,28.30
2023-12-18T20:06:45.090Z,20.60
2023-12-18T20:09:11.949Z,15.20
2023-12-18T20:11:39.392Z,15.30
2023-12-18T20:14:06.205Z,15.50
2023-12-18T20:16:33.310Z,13.50
2023-12-18T20:19:00.345Z,14.90
2023-12-18T20:21:27.386Z,15.60
2023-12-18T20:23:54.463Z,16.50
2023-12-18T20:26:21.274Z,22.60
2023-12-18T20:28:48.064Z,20.20
2023-12-18T20:31:14.937Z,19.60
2023-12-18T20:33:42.070Z,18.50
2023-12-18T20:36:08.949Z,27.70
2023-12-18T20:38:35.800Z,20.80
2023-12-18T20:41:02.651Z,18.10
2023-12-18T20:43:30.211Z,27.50
2023-12-18T20:46:05.634Z,21.00
2023-12-18T20:48:35.013Z,18.90
2023-12-18T20:51:01.910Z,24.10
2023-12-18T20:53:31.601Z,29.90
2023-12-18T20:56:00.587Z,36.70
2023-12-18T20:58:28.164Z,40.90
2023-12-18T21:00:55.174Z,28.00
2023-12-18T21:03:22.230Z,21.90
2023-12-18T21:05:49.270Z,24.60
2023-12-18T21:08:17.543Z,21.00
2023-12-18T21:10:44.871Z,18.80
2023-12-18T21:13:16.078Z,28.50
2023-12-18T21:15:43.924Z,26.90
2023-12-18T21:18:10.939Z,19.90
2023-12-18T21:20:37.796Z,16.20
2023-12-18T21:23:05.128Z,15.50
2023-12-18T21:25:32.433Z,17.40
2023-12-18T21:28:00.486Z,17.30
2023-12-18T21:30:28.160Z,13.80
2023-12-18T21:32:56.097Z,14.10
2023-12-18T21:35:23.189Z,12.80
2023-12-18T21:37:50.031Z,15.90
2023-12-18T21:40:17.297Z,15.40
2023-12-18T21:42:45.082Z,14.30
2023-12-18T21:45:12.244Z,12.30
2023-12-18T21:47:39.952Z,14.60
2023-12-18T21:50:07.456Z,12.80
2023-12-18T21:52:34.366Z,11.60
2023-12-18T21:55:02.436Z,16.80
2023-12-18T21:57:29.259Z,13.80
2023-12-18T21:59:56.215Z,13.20
2023-12-18T22:02:23.029Z,17.60
2023-12-18T22:04:49.757Z,14.10
2023-12-18T22:07:16.620Z,13.90
2023-12-18T22:09:43.482Z,16.70
2023-12-18T22:12:10.829Z,13.70
2023-12-18T22:14:37.737Z,14.50
2023-12-18T22:17:05.037Z,15.50
2023-12-18T22:19:31.928Z,18.50
2023-12-18T22:21:58.911Z,15.50
2023-12-18T22:24:26.385Z,13.70
2023-12-18T22:26:53.196Z,12.10
2023-12-18T22:29:20.023Z,10.90
2023-12-18T22:31:47.007Z,8.90
2023-12-18T22:34:14.145Z,14.40
2023-12-18T22:36:41.098Z,16.60
2023-12-18T22:39:11.857Z,16.50
2023-12-18T22:41:41.001Z,14.50
2023-12-18T22:44:08.114Z,18.50
2023-12-18T22:46:35.056Z,11.60
2023-12-18T22:49:02.283Z,12.00
2023-12-18T22:51:29.196Z,15.30
2023-12-18T22:53:55.947Z,14.00
2023-12-18T22:56:23.953Z,9.40
2023-12-18T22:58:50.749Z,11.10
2023-12-18T23:01:17.680Z,16.00
2023-12-18T23:03:44.614Z,13.90
2023-12-18T23:06:11.351Z,12.40
2023-12-18T23:08:38.148Z,11.70
2023-12-18T23:11:04.912Z,12.20
2023-12-18T23:13:31.660Z,9.60
2023-12-18T23:15:58.447Z,16.00
2023-12-18T23:18:25.377Z,18.40
2023-12-18T23:20:52.396Z,16.20
2023-12-18T23:23:19.169Z,14.80
2023-12-18T23:25:46.136Z,13.50
2023-12-18T23:28:12.860Z,10.90
2023-12-18T23:30:39.701Z,11.30
2023-12-18T23:33:13.064Z,10.80
2023-12-18T23:35:44.649Z,10.80
2023-12-18T23:38:11.396Z,12.60
2023-12-18T23:40:38.618Z,10.90
2023-12-18T23:43:05.451Z,9.30
2023-12-18T23:45:32.519Z,7.20
2023-12-18T23:47:59.379Z,8.40
2023-12-18T23:50:26.199Z,10.80
2023-12-18T23:52:53.072Z,20.00
2023-12-18T23:55:19.873Z,21.40
2023-12-18T23:57:46.715Z,23.30
